Grider Field
KPBF : now visible

Airfield :











YOU CAN JOIN US ON...

 
LOGIN :

Register | Disclaimer

   EN    FR    IT 

 









Legend :    VFR   Marginal VFR   IFR   Intensive IFR   Very Intensive IFR
Visi :
Ceiling :
>= 8 km
>= 3000ft
5 to 8 km
1000 to 3000 ft
1500m to 5 km
500 to 1000 ft
800 to 1500m
200 to 500 ft
< 800m
< 200 ft
Symbols :   Thunderstorms  Fog  Heavy snow  Heavy precipitations  Wind > 20 kt






- Airport Elevation : 206 ft


KPBF - Grider Field

CURRENT METAR :
  • 080743Z AUTO 04010KT 10SM BKN020 OVC075 13/11 A3011 RMK AO2 T01330111

EXPIRED METARs :
  • 080653Z AUTO 03008KT 10SM FEW080 OVC100 14/11 A3014 RMK AO2 SLP203 T01390111
  • 080553Z AUTO 04009KT 10SM OVC085 14/11 A3013 RMK AO2 SLP201 T01390111 10189 20139 402330072 58004
  • 080453Z AUTO 04007KT 10SM OVC085 14/11 A3014 RMK AO2 SLP207 T01440111

TAF KPBF
Valid from the 08 at 06:00 until the 09 at 06:00 UTC


080526Z 0806/0906 04007KT P6SM OVC080
FM081000 05008KT P6SM SCT015 OVC040
TEMPO 0810/0814 5SM BR OVC015
FM081400 06007KT 6SM -RA BKN007 OVC015
FM082100 17012KT P6SM SCT025 BKN050
FM090000 19012G20KT 6SM -SHRA VCTS BKN025 OVC050CB
PROB30 0902/0906 2SM TSRA BR OVC010CB
KZME FIR / North America



MET'MAP, your aeronautical weather chart ! - Copyright ORBIFLY December 2007 - Disclaimer

ORBIFLY MET'MAP TEAM :

Programming & Development : Alexandra Zaïnal
Original concept : Baudouin d'Aumeries
Technical & hardware support : Manuel Goepfert
Assistance : Marc-Olivier Méhu




SOURCES & CREDITS :

   NOAA       Earth
Advisory